sensor_id;sensor_type;location;lat;lon;timestamp;P1;durP1;ratioP1;P2;durP2;ratioP2
79149;SDS011;68563;45.644;13.782;2023-09-12T00:00:54;8.73;;;7.82;;
79149;SDS011;68563;45.644;13.782;2023-09-12T00:03:20;8.93;;;8.02;;
79149;SDS011;68563;45.644;13.782;2023-09-12T00:05:50;10.60;;;8.35;;
79149;SDS011;68563;45.644;13.782;2023-09-12T00:08:17;9.52;;;8.13;;
79149;SDS011;68563;45.644;13.782;2023-09-12T00:10:42;10.98;;;7.80;;
79149;SDS011;68563;45.644;13.782;2023-09-12T00:13:07;9.50;;;7.45;;
79149;SDS011;68563;45.644;13.782;2023-09-12T00:15:33;8.88;;;7.97;;
79149;SDS011;68563;45.644;13.782;2023-09-12T00:17:58;13.27;;;7.90;;
79149;SDS011;68563;45.644;13.782;2023-09-12T00:20:23;9.07;;;7.90;;
79149;SDS011;68563;45.644;13.782;2023-09-12T00:22:49;8.95;;;7.72;;
79149;SDS011;68563;45.644;13.782;2023-09-12T00:25:14;9.35;;;7.78;;
79149;SDS011;68563;45.644;13.782;2023-09-12T00:27:40;10.32;;;7.82;;
79149;SDS011;68563;45.644;13.782;2023-09-12T00:30:05;8.70;;;7.80;;
79149;SDS011;68563;45.644;13.782;2023-09-12T00:32:31;11.02;;;7.80;;
79149;SDS011;68563;45.644;13.782;2023-09-12T00:34:56;9.95;;;7.43;;
79149;SDS011;68563;45.644;13.782;2023-09-12T00:37:22;8.18;;;7.38;;
79149;SDS011;68563;45.644;13.782;2023-09-12T00:39:47;8.93;;;7.43;;
79149;SDS011;68563;45.644;13.782;2023-09-12T00:42:12;9.20;;;7.93;;
79149;SDS011;68563;45.644;13.782;2023-09-12T00:44:38;16.52;;;7.60;;
79149;SDS011;68563;45.644;13.782;2023-09-12T00:47:03;9.20;;;7.35;;
79149;SDS011;68563;45.644;13.782;2023-09-12T00:49:29;8.75;;;7.55;;
79149;SDS011;68563;45.644;13.782;2023-09-12T00:51:55;13.40;;;8.25;;
79149;SDS011;68563;45.644;13.782;2023-09-12T00:54:22;9.25;;;7.70;;
79149;SDS011;68563;45.644;13.782;2023-09-12T00:56:47;9.93;;;8.32;;
79149;SDS011;68563;45.644;13.782;2023-09-12T00:59:13;10.82;;;7.57;;
79149;SDS011;68563;45.644;13.782;2023-09-12T01:01:43;9.80;;;7.82;;
79149;SDS011;68563;45.644;13.782;2023-09-12T01:04:09;10.15;;;7.63;;
79149;SDS011;68563;45.644;13.782;2023-09-12T01:06:35;8.82;;;7.97;;
79149;SDS011;68563;45.644;13.782;2023-09-12T01:09:01;8.95;;;7.32;;
79149;SDS011;68563;45.644;13.782;2023-09-12T01:11:27;9.30;;;8.27;;
79149;SDS011;68563;45.644;13.782;2023-09-12T01:13:53;9.18;;;8.20;;
79149;SDS011;68563;45.644;13.782;2023-09-12T01:16:19;8.35;;;7.55;;
79149;SDS011;68563;45.644;13.782;2023-09-12T01:18:44;10.85;;;7.70;;
79149;SDS011;68563;45.644;13.782;2023-09-12T01:26:39;9.02;;;7.90;;
79149;SDS011;68563;45.644;13.782;2023-09-12T01:29:22;9.30;;;8.02;;
79149;SDS011;68563;45.644;13.782;2023-09-12T01:31:50;9.35;;;8.32;;
79149;SDS011;68563;45.644;13.782;2023-09-12T01:34:17;9.68;;;8.45;;
79149;SDS011;68563;45.644;13.782;2023-09-12T01:36:44;12.25;;;7.50;;
79149;SDS011;68563;45.644;13.782;2023-09-12T01:39:09;9.55;;;8.57;;
79149;SDS011;68563;45.644;13.782;2023-09-12T01:41:35;9.90;;;8.02;;
79149;SDS011;68563;45.644;13.782;2023-09-12T01:44:05;10.38;;;8.45;;
79149;SDS011;68563;45.644;13.782;2023-09-12T01:46:31;8.57;;;7.68;;
79149;SDS011;68563;45.644;13.782;2023-09-12T01:48:59;9.35;;;8.07;;
79149;SDS011;68563;45.644;13.782;2023-09-12T01:51:25;8.50;;;7.70;;
79149;SDS011;68563;45.644;13.782;2023-09-12T01:53:53;9.88;;;7.85;;
79149;SDS011;68563;45.644;13.782;2023-09-12T01:56:20;9.60;;;7.60;;
79149;SDS011;68563;45.644;13.782;2023-09-12T01:58:46;10.20;;;7.80;;
79149;SDS011;68563;45.644;13.782;2023-09-12T02:01:12;9.15;;;8.25;;
79149;SDS011;68563;45.644;13.782;2023-09-12T02:03:37;9.05;;;8.15;;
79149;SDS011;68563;45.644;13.782;2023-09-12T02:06:03;10.05;;;8.68;;
79149;SDS011;68563;45.644;13.782;2023-09-12T02:08:28;11.13;;;8.55;;
79149;SDS011;68563;45.644;13.782;2023-09-12T02:10:54;9.52;;;8.52;;
79149;SDS011;68563;45.644;13.782;2023-09-12T02:13:19;9.05;;;8.20;;
79149;SDS011;68563;45.644;13.782;2023-09-12T02:15:45;9.15;;;8.18;;
79149;SDS011;68563;45.644;13.782;2023-09-12T02:18:10;9.45;;;7.88;;
79149;SDS011;68563;45.644;13.782;2023-09-12T02:20:37;14.05;;;8.65;;
79149;SDS011;68563;45.644;13.782;2023-09-12T02:23:04;9.88;;;8.18;;
79149;SDS011;68563;45.644;13.782;2023-09-12T02:25:29;8.90;;;8.10;;
79149;SDS011;68563;45.644;13.782;2023-09-12T02:27:54;10.00;;;8.48;;
79149;SDS011;68563;45.644;13.782;2023-09-12T02:30:20;10.73;;;8.60;;
79149;SDS011;68563;45.644;13.782;2023-09-12T02:32:45;9.65;;;8.10;;
79149;SDS011;68563;45.644;13.782;2023-09-12T02:35:11;11.93;;;9.05;;
79149;SDS011;68563;45.644;13.782;2023-09-12T02:37:36;10.73;;;8.35;;
79149;SDS011;68563;45.644;13.782;2023-09-12T02:40:02;11.40;;;8.48;;
79149;SDS011;68563;45.644;13.782;2023-09-12T02:42:30;9.68;;;8.13;;
79149;SDS011;68563;45.644;13.782;2023-09-12T02:44:55;11.35;;;8.85;;
79149;SDS011;68563;45.644;13.782;2023-09-12T02:47:21;9.48;;;8.48;;
79149;SDS011;68563;45.644;13.782;2023-09-12T02:49:46;11.68;;;8.32;;
79149;SDS011;68563;45.644;13.782;2023-09-12T02:52:11;8.73;;;7.35;;
79149;SDS011;68563;45.644;13.782;2023-09-12T02:54:37;9.50;;;8.48;;
79149;SDS011;68563;45.644;13.782;2023-09-12T02:57:02;10.20;;;8.57;;
79149;SDS011;68563;45.644;13.782;2023-09-12T02:59:29;9.15;;;8.30;;
79149;SDS011;68563;45.644;13.782;2023-09-12T03:01:54;9.98;;;8.32;;
79149;SDS011;68563;45.644;13.782;2023-09-12T03:04:20;9.65;;;8.52;;
79149;SDS011;68563;45.644;13.782;2023-09-12T03:06:45;9.07;;;8.02;;
79149;SDS011;68563;45.644;13.782;2023-09-12T03:09:11;8.80;;;7.95;;
79149;SDS011;68563;45.644;13.782;2023-09-12T03:11:38;10.15;;;8.00;;
79149;SDS011;68563;45.644;13.782;2023-09-12T03:14:04;9.15;;;7.95;;
79149;SDS011;68563;45.644;13.782;2023-09-12T03:16:29;8.45;;;7.38;;
79149;SDS011;68563;45.644;13.782;2023-09-12T03:18:54;11.27;;;8.70;;
79149;SDS011;68563;45.644;13.782;2023-09-12T03:21:20;11.48;;;8.35;;
79149;SDS011;68563;45.644;13.782;2023-09-12T03:23:45;9.40;;;8.50;;
79149;SDS011;68563;45.644;13.782;2023-09-12T03:26:11;10.30;;;8.63;;
79149;SDS011;68563;45.644;13.782;2023-09-12T03:28:36;8.57;;;7.68;;
79149;SDS011;68563;45.644;13.782;2023-09-12T03:31:11;11.10;;;8.20;;
79149;SDS011;68563;45.644;13.782;2023-09-12T03:33:38;12.95;;;8.82;;
79149;SDS011;68563;45.644;13.782;2023-09-12T03:36:05;10.82;;;8.57;;
79149;SDS011;68563;45.644;13.782;2023-09-12T03:38:31;11.52;;;8.65;;
79149;SDS011;68563;45.644;13.782;2023-09-12T03:40:57;9.85;;;8.45;;
79149;SDS011;68563;45.644;13.782;2023-09-12T03:43:22;10.23;;;8.77;;
79149;SDS011;68563;45.644;13.782;2023-09-12T03:45:47;10.57;;;8.30;;
79149;SDS011;68563;45.644;13.782;2023-09-12T03:48:14;9.07;;;8.15;;
79149;SDS011;68563;45.644;13.782;2023-09-12T03:50:39;9.25;;;8.23;;
79149;SDS011;68563;45.644;13.782;2023-09-12T03:53:04;10.27;;;8.48;;
79149;SDS011;68563;45.644;13.782;2023-09-12T03:55:30;15.25;;;7.93;;
79149;SDS011;68563;45.644;13.782;2023-09-12T03:57:55;10.57;;;7.43;;
79149;SDS011;68563;45.644;13.782;2023-09-12T04:00:21;10.50;;;8.40;;
79149;SDS011;68563;45.644;13.782;2023-09-12T04:02:46;9.95;;;8.52;;
79149;SDS011;68563;45.644;13.782;2023-09-12T04:05:13;11.52;;;9.05;;
79149;SDS011;68563;45.644;13.782;2023-09-12T04:07:39;10.43;;;8.40;;
79149;SDS011;68563;45.644;13.782;2023-09-12T04:10:04;11.80;;;9.25;;
79149;SDS011;68563;45.644;13.782;2023-09-12T04:12:30;9.65;;;8.65;;
79149;SDS011;68563;45.644;13.782;2023-09-12T04:14:56;8.93;;;8.13;;
79149;SDS011;68563;45.644;13.782;2023-09-12T04:17:21;12.25;;;8.23;;
79149;SDS011;68563;45.644;13.782;2023-09-12T04:19:46;11.15;;;8.57;;
79149;SDS011;68563;45.644;13.782;2023-09-12T04:22:12;9.85;;;8.70;;
79149;SDS011;68563;45.644;13.782;2023-09-12T04:24:37;11.43;;;8.48;;
79149;SDS011;68563;45.644;13.782;2023-09-12T04:27:03;11.93;;;9.13;;
79149;SDS011;68563;45.644;13.782;2023-09-12T04:29:28;11.80;;;9.05;;
79149;SDS011;68563;45.644;13.782;2023-09-12T04:31:54;10.40;;;9.30;;
79149;SDS011;68563;45.644;13.782;2023-09-12T04:34:24;13.23;;;9.25;;
79149;SDS011;68563;45.644;13.782;2023-09-12T04:36:50;11.43;;;8.85;;
79149;SDS011;68563;45.644;13.782;2023-09-12T04:39:16;11.50;;;9.50;;
79149;SDS011;68563;45.644;13.782;2023-09-12T04:41:41;10.50;;;9.00;;
79149;SDS011;68563;45.644;13.782;2023-09-12T04:44:06;10.50;;;9.40;;
79149;SDS011;68563;45.644;13.782;2023-09-12T04:46:32;10.50;;;9.38;;
79149;SDS011;68563;45.644;13.782;2023-09-12T04:48:58;10.18;;;9.13;;
79149;SDS011;68563;45.644;13.782;2023-09-12T04:51:23;10.90;;;9.27;;
79149;SDS011;68563;45.644;13.782;2023-09-12T04:53:49;11.15;;;8.93;;
79149;SDS011;68563;45.644;13.782;2023-09-12T04:56:16;9.80;;;8.20;;
79149;SDS011;68563;45.644;13.782;2023-09-12T04:58:42;9.98;;;9.05;;
79149;SDS011;68563;45.644;13.782;2023-09-12T05:01:07;13.52;;;9.00;;
79149;SDS011;68563;45.644;13.782;2023-09-12T05:03:34;11.10;;;9.30;;
79149;SDS011;68563;45.644;13.782;2023-09-12T05:05:59;10.15;;;9.10;;
79149;SDS011;68563;45.644;13.782;2023-09-12T05:08:25;12.25;;;9.25;;
79149;SDS011;68563;45.644;13.782;2023-09-12T05:10:50;10.10;;;9.10;;
79149;SDS011;68563;45.644;13.782;2023-09-12T05:13:16;10.40;;;8.88;;
79149;SDS011;68563;45.644;13.782;2023-09-12T05:15:42;10.15;;;8.80;;
79149;SDS011;68563;45.644;13.782;2023-09-12T05:18:07;13.20;;;8.57;;
79149;SDS011;68563;45.644;13.782;2023-09-12T05:20:33;12.57;;;9.05;;
79149;SDS011;68563;45.644;13.782;2023-09-12T05:22:59;11.45;;;8.95;;
79149;SDS011;68563;45.644;13.782;2023-09-12T05:25:25;10.88;;;9.20;;
79149;SDS011;68563;45.644;13.782;2023-09-12T05:27:52;10.30;;;8.68;;
79149;SDS011;68563;45.644;13.782;2023-09-12T05:30:17;10.82;;;9.05;;
79149;SDS011;68563;45.644;13.782;2023-09-12T05:32:43;18.73;;;9.73;;
79149;SDS011;68563;45.644;13.782;2023-09-12T05:35:08;12.18;;;9.27;;
79149;SDS011;68563;45.644;13.782;2023-09-12T05:37:34;10.45;;;8.63;;
79149;SDS011;68563;45.644;13.782;2023-09-12T05:39:59;13.80;;;10.00;;
79149;SDS011;68563;45.644;13.782;2023-09-12T05:42:24;10.70;;;9.30;;
79149;SDS011;68563;45.644;13.782;2023-09-12T05:44:50;11.52;;;9.13;;
79149;SDS011;68563;45.644;13.782;2023-09-12T05:47:18;10.77;;;8.73;;
79149;SDS011;68563;45.644;13.782;2023-09-12T05:49:44;18.63;;;10.48;;
79149;SDS011;68563;45.644;13.782;2023-09-12T05:52:10;17.67;;;11.18;;
79149;SDS011;68563;45.644;13.782;2023-09-12T05:54:36;12.85;;;10.45;;
79149;SDS011;68563;45.644;13.782;2023-09-12T05:57:02;16.35;;;10.85;;
79149;SDS011;68563;45.644;13.782;2023-09-12T05:59:28;12.57;;;9.50;;
79149;SDS011;68563;45.644;13.782;2023-09-12T06:01:53;13.63;;;9.18;;
79149;SDS011;68563;45.644;13.782;2023-09-12T06:04:19;13.20;;;9.18;;
79149;SDS011;68563;45.644;13.782;2023-09-12T06:06:45;10.75;;;8.95;;
79149;SDS011;68563;45.644;13.782;2023-09-12T06:09:11;12.50;;;9.77;;
79149;SDS011;68563;45.644;13.782;2023-09-12T06:11:36;23.33;;;9.77;;
79149;SDS011;68563;45.644;13.782;2023-09-12T06:14:02;12.85;;;9.10;;
79149;SDS011;68563;45.644;13.782;2023-09-12T06:16:27;18.50;;;9.00;;
79149;SDS011;68563;45.644;13.782;2023-09-12T06:18:53;14.30;;;8.88;;
79149;SDS011;68563;45.644;13.782;2023-09-12T06:21:18;14.63;;;7.50;;
79149;SDS011;68563;45.644;13.782;2023-09-12T06:23:46;25.90;;;8.63;;
79149;SDS011;68563;45.644;13.782;2023-09-12T06:26:12;14.68;;;9.25;;
79149;SDS011;68563;45.644;13.782;2023-09-12T06:28:37;15.63;;;8.82;;
79149;SDS011;68563;45.644;13.782;2023-09-12T06:31:02;12.40;;;9.07;;
79149;SDS011;68563;45.644;13.782;2023-09-12T06:33:28;9.93;;;8.55;;
79149;SDS011;68563;45.644;13.782;2023-09-12T06:35:53;13.50;;;9.07;;
79149;SDS011;68563;45.644;13.782;2023-09-12T06:38:19;12.18;;;8.60;;
79149;SDS011;68563;45.644;13.782;2023-09-12T06:40:45;11.38;;;8.13;;
79149;SDS011;68563;45.644;13.782;2023-09-12T06:43:14;11.27;;;8.63;;
79149;SDS011;68563;45.644;13.782;2023-09-12T06:45:40;14.57;;;8.60;;
79149;SDS011;68563;45.644;13.782;2023-09-12T06:48:06;15.10;;;7.82;;
79149;SDS011;68563;45.644;13.782;2023-09-12T06:50:31;13.27;;;8.13;;
79149;SDS011;68563;45.644;13.782;2023-09-12T06:52:57;12.48;;;8.00;;
79149;SDS011;68563;45.644;13.782;2023-09-12T06:55:22;12.52;;;7.60;;
79149;SDS011;68563;45.644;13.782;2023-09-12T06:57:49;15.55;;;8.60;;
79149;SDS011;68563;45.644;13.782;2023-09-12T07:00:14;13.38;;;7.90;;
79149;SDS011;68563;45.644;13.782;2023-09-12T07:02:40;12.88;;;7.15;;
79149;SDS011;68563;45.644;13.782;2023-09-12T07:05:05;12.52;;;7.78;;
79149;SDS011;68563;45.644;13.782;2023-09-12T07:07:31;9.70;;;6.68;;
79149;SDS011;68563;45.644;13.782;2023-09-12T07:09:57;9.68;;;8.00;;
79149;SDS011;68563;45.644;13.782;2023-09-12T07:12:22;10.50;;;7.30;;
79149;SDS011;68563;45.644;13.782;2023-09-12T07:14:48;8.75;;;7.35;;
79149;SDS011;68563;45.644;13.782;2023-09-12T07:17:16;11.32;;;7.45;;
79149;SDS011;68563;45.644;13.782;2023-09-12T07:19:42;9.75;;;8.05;;
79149;SDS011;68563;45.644;13.782;2023-09-12T07:22:08;10.90;;;7.68;;
79149;SDS011;68563;45.644;13.782;2023-09-12T07:24:33;18.50;;;7.50;;
79149;SDS011;68563;45.644;13.782;2023-09-12T07:26:58;8.57;;;7.57;;
79149;SDS011;68563;45.644;13.782;2023-09-12T07:29:24;12.27;;;7.82;;
79149;SDS011;68563;45.644;13.782;2023-09-12T07:31:51;9.82;;;7.30;;
79149;SDS011;68563;45.644;13.782;2023-09-12T07:34:18;9.07;;;7.63;;
79149;SDS011;68563;45.644;13.782;2023-09-12T07:36:44;11.07;;;8.02;;
79149;SDS011;68563;45.644;13.782;2023-09-12T07:39:09;13.27;;;7.55;;
79149;SDS011;68563;45.644;13.782;2023-09-12T07:41:35;17.02;;;7.35;;
79149;SDS011;68563;45.644;13.782;2023-09-12T07:44:01;10.30;;;6.18;;
79149;SDS011;68563;45.644;13.782;2023-09-12T07:46:29;14.05;;;9.02;;
79149;SDS011;68563;45.644;13.782;2023-09-12T07:48:55;17.33;;;8.02;;
79149;SDS011;68563;45.644;13.782;2023-09-12T07:51:20;14.13;;;7.32;;
79149;SDS011;68563;45.644;13.782;2023-09-12T07:53:47;11.18;;;6.78;;
79149;SDS011;68563;45.644;13.782;2023-09-12T07:56:13;10.32;;;6.00;;
79149;SDS011;68563;45.644;13.782;2023-09-12T07:58:38;9.98;;;7.53;;
79149;SDS011;68563;45.644;13.782;2023-09-12T08:01:05;14.35;;;7.45;;
79149;SDS011;68563;45.644;13.782;2023-09-12T08:03:31;10.65;;;6.55;;
79149;SDS011;68563;45.644;13.782;2023-09-12T08:05:57;12.43;;;8.00;;
79149;SDS011;68563;45.644;13.782;2023-09-12T08:08:23;11.50;;;7.13;;
79149;SDS011;68563;45.644;13.782;2023-09-12T08:10:48;14.23;;;8.13;;
79149;SDS011;68563;45.644;13.782;2023-09-12T08:13:14;13.07;;;8.73;;
79149;SDS011;68563;45.644;13.782;2023-09-12T08:15:41;10.07;;;8.15;;
79149;SDS011;68563;45.644;13.782;2023-09-12T08:18:06;15.40;;;9.30;;
79149;SDS011;68563;45.644;13.782;2023-09-12T08:20:31;13.18;;;8.80;;
79149;SDS011;68563;45.644;13.782;2023-09-12T08:22:57;12.43;;;9.40;;
79149;SDS011;68563;45.644;13.782;2023-09-12T08:25:22;15.52;;;9.32;;
79149;SDS011;68563;45.644;13.782;2023-09-12T08:27:49;13.15;;;8.82;;
79149;SDS011;68563;45.644;13.782;2023-09-12T08:30:15;12.10;;;8.80;;
79149;SDS011;68563;45.644;13.782;2023-09-12T08:32:41;14.90;;;9.02;;
79149;SDS011;68563;45.644;13.782;2023-09-12T08:35:09;11.82;;;9.35;;
79149;SDS011;68563;45.644;13.782;2023-09-12T08:37:36;12.65;;;7.43;;
79149;SDS011;68563;45.644;13.782;2023-09-12T08:40:02;13.35;;;9.02;;
79149;SDS011;68563;45.644;13.782;2023-09-12T08:42:32;10.10;;;8.88;;
79149;SDS011;68563;45.644;13.782;2023-09-12T08:45:02;14.70;;;9.88;;
79149;SDS011;68563;45.644;13.782;2023-09-12T08:47:29;13.95;;;8.88;;
79149;SDS011;68563;45.644;13.782;2023-09-12T08:49:56;14.27;;;9.38;;
79149;SDS011;68563;45.644;13.782;2023-09-12T08:52:22;11.68;;;9.52;;
79149;SDS011;68563;45.644;13.782;2023-09-12T08:54:47;13.55;;;8.93;;
79149;SDS011;68563;45.644;13.782;2023-09-12T08:57:13;10.40;;;9.23;;
79149;SDS011;68563;45.644;13.782;2023-09-12T08:59:38;14.93;;;9.13;;
79149;SDS011;68563;45.644;13.782;2023-09-12T09:02:06;13.65;;;9.52;;
79149;SDS011;68563;45.644;13.782;2023-09-12T09:04:34;14.63;;;10.02;;
79149;SDS011;68563;45.644;13.782;2023-09-12T09:07:02;13.07;;;9.95;;
79149;SDS011;68563;45.644;13.782;2023-09-12T09:09:28;12.63;;;9.90;;
79149;SDS011;68563;45.644;13.782;2023-09-12T09:11:55;13.35;;;10.15;;
79149;SDS011;68563;45.644;13.782;2023-09-12T09:14:20;11.23;;;9.80;;
79149;SDS011;68563;45.644;13.782;2023-09-12T09:16:46;14.20;;;9.80;;
79149;SDS011;68563;45.644;13.782;2023-09-12T09:19:11;9.57;;;7.95;;
79149;SDS011;68563;45.644;13.782;2023-09-12T09:21:37;13.07;;;9.60;;
79149;SDS011;68563;45.644;13.782;2023-09-12T09:24:09;9.88;;;8.88;;
79149;SDS011;68563;45.644;13.782;2023-09-12T09:26:44;10.18;;;9.18;;
79149;SDS011;68563;45.644;13.782;2023-09-12T09:29:17;10.63;;;8.77;;
79149;SDS011;68563;45.644;13.782;2023-09-12T09:31:45;12.30;;;7.90;;
79149;SDS011;68563;45.644;13.782;2023-09-12T09:34:17;10.90;;;7.18;;
79149;SDS011;68563;45.644;13.782;2023-09-12T09:36:44;12.95;;;8.98;;
79149;SDS011;68563;45.644;13.782;2023-09-12T09:39:12;10.38;;;8.57;;
79149;SDS011;68563;45.644;13.782;2023-09-12T09:41:38;15.38;;;9.48;;
79149;SDS011;68563;45.644;13.782;2023-09-12T09:44:05;12.00;;;8.32;;
79149;SDS011;68563;45.644;13.782;2023-09-12T09:46:32;14.57;;;9.68;;
79149;SDS011;68563;45.644;13.782;2023-09-12T09:48:58;14.85;;;10.70;;
79149;SDS011;68563;45.644;13.782;2023-09-12T09:51:24;11.77;;;9.95;;
79149;SDS011;68563;45.644;13.782;2023-09-12T09:53:51;14.85;;;9.85;;
79149;SDS011;68563;45.644;13.782;2023-09-12T09:56:17;12.48;;;10.02;;
79149;SDS011;68563;45.644;13.782;2023-09-12T10:01:22;11.77;;;10.25;;
79149;SDS011;68563;45.644;13.782;2023-09-12T10:03:50;11.95;;;10.75;;
79149;SDS011;68563;45.644;13.782;2023-09-12T10:06:16;13.63;;;10.60;;
79149;SDS011;68563;45.644;13.782;2023-09-12T10:08:44;11.50;;;9.35;;
79149;SDS011;68563;45.644;13.782;2023-09-12T10:11:14;16.88;;;9.10;;
79149;SDS011;68563;45.644;13.782;2023-09-12T10:14:15;9.13;;;8.25;;
79149;SDS011;68563;45.644;13.782;2023-09-12T10:16:44;11.48;;;10.27;;
79149;SDS011;68563;45.644;13.782;2023-09-12T10:19:17;13.20;;;9.65;;
79149;SDS011;68563;45.644;13.782;2023-09-12T10:22:02;10.43;;;9.30;;
79149;SDS011;68563;45.644;13.782;2023-09-12T10:24:45;10.23;;;8.65;;
79149;SDS011;68563;45.644;13.782;2023-09-12T10:27:13;11.52;;;10.35;;
79149;SDS011;68563;45.644;13.782;2023-09-12T10:29:40;14.45;;;9.73;;
79149;SDS011;68563;45.644;13.782;2023-09-12T10:32:05;15.10;;;9.82;;
79149;SDS011;68563;45.644;13.782;2023-09-12T10:34:34;12.68;;;9.25;;
79149;SDS011;68563;45.644;13.782;2023-09-12T10:37:02;9.35;;;8.20;;
79149;SDS011;68563;45.644;13.782;2023-09-12T10:39:31;11.27;;;9.27;;
79149;SDS011;68563;45.644;13.782;2023-09-12T10:42:01;15.40;;;9.35;;
79149;SDS011;68563;45.644;13.782;2023-09-12T10:44:30;11.52;;;9.15;;
79149;SDS011;68563;45.644;13.782;2023-09-12T10:46:56;11.45;;;9.18;;
79149;SDS011;68563;45.644;13.782;2023-09-12T10:49:23;14.65;;;9.23;;
79149;SDS011;68563;45.644;13.782;2023-09-12T10:51:49;10.60;;;8.75;;
79149;SDS011;68563;45.644;13.782;2023-09-12T10:54:24;9.63;;;8.73;;
79149;SDS011;68563;45.644;13.782;2023-09-12T10:57:03;11.65;;;9.05;;
79149;SDS011;68563;45.644;13.782;2023-09-12T10:59:29;12.27;;;9.18;;
79149;SDS011;68563;45.644;13.782;2023-09-12T11:02:00;10.90;;;9.27;;
79149;SDS011;68563;45.644;13.782;2023-09-12T11:04:55;11.77;;;9.38;;
79149;SDS011;68563;45.644;13.782;2023-09-12T11:08:03;11.25;;;9.48;;
79149;SDS011;68563;45.644;13.782;2023-09-12T11:12:45;12.07;;;8.32;;
79149;SDS011;68563;45.644;13.782;2023-09-12T11:15:15;12.18;;;9.18;;
79149;SDS011;68563;45.644;13.782;2023-09-12T11:17:42;14.82;;;9.02;;
79149;SDS011;68563;45.644;13.782;2023-09-12T11:20:09;9.13;;;8.05;;
79149;SDS011;68563;45.644;13.782;2023-09-12T11:22:36;12.32;;;9.43;;
79149;SDS011;68563;45.644;13.782;2023-09-12T11:25:04;12.52;;;8.88;;
79149;SDS011;68563;45.644;13.782;2023-09-12T11:30:18;9.77;;;8.38;;
79149;SDS011;68563;45.644;13.782;2023-09-12T11:32:50;11.15;;;9.13;;
79149;SDS011;68563;45.644;13.782;2023-09-12T11:35:21;13.45;;;8.93;;
79149;SDS011;68563;45.644;13.782;2023-09-12T11:37:49;9.55;;;8.57;;
79149;SDS011;68563;45.644;13.782;2023-09-12T11:42:48;13.27;;;8.82;;
79149;SDS011;68563;45.644;13.782;2023-09-12T11:45:14;9.30;;;8.20;;
79149;SDS011;68563;45.644;13.782;2023-09-12T11:47:44;11.65;;;8.80;;
79149;SDS011;68563;45.644;13.782;2023-09-12T11:50:29;12.43;;;9.63;;
79149;SDS011;68563;45.644;13.782;2023-09-12T11:53:04;13.18;;;8.95;;
79149;SDS011;68563;45.644;13.782;2023-09-12T11:55:42;13.85;;;10.10;;
79149;SDS011;68563;45.644;13.782;2023-09-12T11:58:16;12.00;;;9.55;;
79149;SDS011;68563;45.644;13.782;2023-09-12T12:00:50;13.40;;;8.90;;
79149;SDS011;68563;45.644;13.782;2023-09-12T12:03:27;16.30;;;10.18;;
79149;SDS011;68563;45.644;13.782;2023-09-12T12:05:56;16.60;;;9.57;;
79149;SDS011;68563;45.644;13.782;2023-09-12T12:08:22;11.25;;;9.05;;
79149;SDS011;68563;45.644;13.782;2023-09-12T12:10:51;11.50;;;9.10;;
79149;SDS011;68563;45.644;13.782;2023-09-12T12:13:18;11.95;;;9.18;;
79149;SDS011;68563;45.644;13.782;2023-09-12T12:15:44;9.43;;;8.52;;
79149;SDS011;68563;45.644;13.782;2023-09-12T12:18:09;9.70;;;8.70;;
79149;SDS011;68563;45.644;13.782;2023-09-12T12:20:35;9.70;;;8.27;;
79149;SDS011;68563;45.644;13.782;2023-09-12T12:23:00;11.68;;;8.73;;
79149;SDS011;68563;45.644;13.782;2023-09-12T12:25:26;10.02;;;8.90;;
79149;SDS011;68563;45.644;13.782;2023-09-12T12:27:51;9.77;;;8.40;;
79149;SDS011;68563;45.644;13.782;2023-09-12T12:30:17;9.65;;;7.38;;
79149;SDS011;68563;45.644;13.782;2023-09-12T12:32:43;9.02;;;8.13;;
79149;SDS011;68563;45.644;13.782;2023-09-12T12:35:21;11.23;;;8.82;;
79149;SDS011;68563;45.644;13.782;2023-09-12T12:37:50;10.38;;;8.73;;
79149;SDS011;68563;45.644;13.782;2023-09-12T12:40:19;11.00;;;9.32;;
79149;SDS011;68563;45.644;13.782;2023-09-12T12:42:44;13.90;;;9.50;;
79149;SDS011;68563;45.644;13.782;2023-09-12T12:45:16;10.70;;;9.60;;
79149;SDS011;68563;45.644;13.782;2023-09-12T12:47:43;11.57;;;10.35;;
79149;SDS011;68563;45.644;13.782;2023-09-12T12:50:16;10.52;;;9.15;;
79149;SDS011;68563;45.644;13.782;2023-09-12T12:52:46;11.07;;;9.88;;
79149;SDS011;68563;45.644;13.782;2023-09-12T12:55:13;10.85;;;9.75;;
79149;SDS011;68563;45.644;13.782;2023-09-12T12:57:40;9.80;;;8.80;;
79149;SDS011;68563;45.644;13.782;2023-09-12T13:00:11;10.05;;;8.30;;
79149;SDS011;68563;45.644;13.782;2023-09-12T13:02:37;10.75;;;9.05;;
79149;SDS011;68563;45.644;13.782;2023-09-12T13:05:03;10.30;;;9.05;;
79149;SDS011;68563;45.644;13.782;2023-09-12T13:07:33;10.45;;;8.70;;
79149;SDS011;68563;45.644;13.782;2023-09-12T13:10:00;10.48;;;9.48;;
79149;SDS011;68563;45.644;13.782;2023-09-12T13:12:26;9.85;;;8.60;;
79149;SDS011;68563;45.644;13.782;2023-09-12T13:14:51;9.40;;;7.88;;
79149;SDS011;68563;45.644;13.782;2023-09-12T13:17:16;10.95;;;8.38;;
79149;SDS011;68563;45.644;13.782;2023-09-12T13:19:42;9.38;;;8.48;;
79149;SDS011;68563;45.644;13.782;2023-09-12T13:22:07;9.43;;;8.43;;
79149;SDS011;68563;45.644;13.782;2023-09-12T13:24:33;11.40;;;7.88;;
79149;SDS011;68563;45.644;13.782;2023-09-12T13:26:58;10.32;;;8.25;;
79149;SDS011;68563;45.644;13.782;2023-09-12T13:29:23;10.02;;;7.35;;
79149;SDS011;68563;45.644;13.782;2023-09-12T13:31:49;8.98;;;7.60;;
79149;SDS011;68563;45.644;13.782;2023-09-12T13:34:14;12.05;;;8.35;;
79149;SDS011;68563;45.644;13.782;2023-09-12T13:36:40;10.85;;;8.63;;
79149;SDS011;68563;45.644;13.782;2023-09-12T13:39:06;10.27;;;7.47;;
79149;SDS011;68563;45.644;13.782;2023-09-12T13:41:32;8.32;;;7.25;;
79149;SDS011;68563;45.644;13.782;2023-09-12T13:43:58;9.65;;;7.65;;
79149;SDS011;68563;45.644;13.782;2023-09-12T13:46:23;8.73;;;7.82;;
79149;SDS011;68563;45.644;13.782;2023-09-12T13:48:48;9.98;;;7.38;;
79149;SDS011;68563;45.644;13.782;2023-09-12T13:51:14;9.75;;;8.15;;
79149;SDS011;68563;45.644;13.782;2023-09-12T13:53:39;8.80;;;7.90;;
79149;SDS011;68563;45.644;13.782;2023-09-12T13:56:05;8.90;;;7.75;;
79149;SDS011;68563;45.644;13.782;2023-09-12T13:58:31;9.00;;;7.70;;
79149;SDS011;68563;45.644;13.782;2023-09-12T14:00:58;10.23;;;7.85;;
79149;SDS011;68563;45.644;13.782;2023-09-12T14:03:23;13.38;;;8.50;;
79149;SDS011;68563;45.644;13.782;2023-09-12T14:05:48;9.07;;;8.13;;
79149;SDS011;68563;45.644;13.782;2023-09-12T14:08:14;8.55;;;7.65;;
79149;SDS011;68563;45.644;13.782;2023-09-12T14:10:39;10.32;;;6.65;;
79149;SDS011;68563;45.644;13.782;2023-09-12T14:13:05;9.38;;;7.40;;
79149;SDS011;68563;45.644;13.782;2023-09-12T14:15:30;6.93;;;6.00;;
79149;SDS011;68563;45.644;13.782;2023-09-12T14:17:55;7.65;;;6.25;;
79149;SDS011;68563;45.644;13.782;2023-09-12T14:20:21;7.43;;;6.10;;
79149;SDS011;68563;45.644;13.782;2023-09-12T14:22:46;7.82;;;6.03;;
79149;SDS011;68563;45.644;13.782;2023-09-12T14:25:12;7.80;;;6.65;;
79149;SDS011;68563;45.644;13.782;2023-09-12T14:27:40;9.23;;;6.05;;
79149;SDS011;68563;45.644;13.782;2023-09-12T14:30:07;12.38;;;7.28;;
79149;SDS011;68563;45.644;13.782;2023-09-12T14:32:33;6.85;;;6.13;;
79149;SDS011;68563;45.644;13.782;2023-09-12T14:34:58;6.15;;;5.40;;
79149;SDS011;68563;45.644;13.782;2023-09-12T14:37:24;5.88;;;5.28;;
79149;SDS011;68563;45.644;13.782;2023-09-12T14:39:52;6.18;;;5.57;;